Terminal Aerodrome Forecast
Issued by NWS

Home | Current Version | Previous Version | Text Only | Print | Product List | Glossary Off
Versions: 1 2 3 4 5 6 7 8 9 10 11 12 13 14 15 16

000
FTUS43 KBIS 191132
TAFJMS
TAF
KJMS 191132Z 1912/2012 15006KT P6SM FEW100 FEW200
     FM191400 16008KT P6SM VCTS BKN090CB
      TEMPO 1915/1918 3SM TSRA SCT030 BKN050CB
     FM191800 14008KT P6SM VCTS SCT040CB BKN080
     FM200000 11007KT P6SM FEW050 FEW150=

USA.gov is the U.S. government's official web portal to all federal, state and local government web resources and services.